createdAt,value
2023-03-05T09:28:28.786Z,42.12
2023-03-05T09:29:00.559Z,43.87
2023-03-05T09:29:32.714Z,41.06
2023-03-05T09:30:06.069Z,40.57
2023-03-05T09:33:38.512Z,39.81
2023-03-05T09:34:11.783Z,39.43
2023-03-05T09:34:43.514Z,40.21
2023-03-05T09:35:15.260Z,40.51
2023-03-05T09:35:48.835Z,40.49
2023-03-05T09:36:29.428Z,40.25
2023-03-05T09:37:01.092Z,40.55
2023-03-05T09:37:33.624Z,40.65
2023-03-05T09:38:05.411Z,39.99
2023-03-05T09:38:37.861Z,40.67
2023-03-05T09:39:09.656Z,39.91
2023-03-05T09:39:41.780Z,41.56
2023-03-05T09:40:18.004Z,43.96
2023-03-05T09:40:52.636Z,45.03
2023-03-05T09:41:37.902Z,47.34
2023-03-05T09:42:28.096Z,44.61
2023-03-05T09:43:13.222Z,43.05
2023-03-05T09:43:58.197Z,48.55
2023-03-05T09:44:44.640Z,40.41
2023-03-05T09:45:44.967Z,38.63
2023-03-05T09:46:36.859Z,38.03
2023-03-05T09:47:14.747Z,38.01
2023-03-05T09:47:54.429Z,37.64
2023-03-05T09:48:47.129Z,37.24
2023-03-05T09:49:21.935Z,37.47
2023-03-05T09:50:01.471Z,37.29
2023-03-05T09:50:38.770Z,37.59
2023-03-05T09:51:21.290Z,37.58
2023-03-05T09:52:03.536Z,38.00
2023-03-05T09:52:45.401Z,37.72
2023-03-05T09:53:39.076Z,36.25
2023-03-05T09:54:19.025Z,34.97
2023-03-05T09:54:57.202Z,35.11
2023-03-05T09:55:41.602Z,35.90
2023-03-05T09:56:22.920Z,36.66
2023-03-05T09:56:58.321Z,36.27
2023-03-05T09:57:45.690Z,36.02
2023-03-05T09:58:31.521Z,36.50
2023-03-05T09:59:12.142Z,35.85
2023-03-05T09:59:52.483Z,36.56
2023-03-05T10:00:36.271Z,35.86
2023-03-05T10:01:16.180Z,35.59
2023-03-05T10:01:52.084Z,33.92
2023-03-05T10:02:30.486Z,34.15
2023-03-05T10:03:10.212Z,33.76
2023-03-05T10:03:52.702Z,33.30
2023-03-05T10:04:40.153Z,32.97
2023-03-05T10:05:24.993Z,33.26
2023-03-05T10:06:13.719Z,33.48
2023-03-05T10:06:51.188Z,33.29
2023-03-05T10:07:28.764Z,32.58
2023-03-05T10:08:06.508Z,32.43
2023-03-05T10:09:07.663Z,32.61
2023-03-05T10:09:49.694Z,32.08
2023-03-05T10:10:27.465Z,31.86
2023-03-05T10:11:05.397Z,31.46
2023-03-05T10:11:43.311Z,31.29
2023-03-05T10:12:19.838Z,30.79
2023-03-05T10:12:57.617Z,31.04
2023-03-05T10:13:42.792Z,31.44
2023-03-05T10:14:20.517Z,31.12
2023-03-05T10:14:53.041Z,30.32
2023-03-05T10:15:52.687Z,29.07
2023-03-05T10:16:36.361Z,29.35
2023-03-05T10:17:23.406Z,29.49
2023-03-05T10:18:42.224Z,30.26
2023-03-05T10:19:32.590Z,30.60
2023-03-05T10:20:34.709Z,29.97
2023-03-05T10:21:17.252Z,29.12
2023-03-05T10:22:12.526Z,28.75
2023-03-05T10:22:58.972Z,29.24
2023-03-05T10:23:57.622Z,27.67
2023-03-05T10:25:01.678Z,28.52
2023-03-05T10:26:12.375Z,27.83
2023-03-05T10:27:02.824Z,26.59
2023-03-05T10:27:56.100Z,26.23
2023-03-05T10:28:58.227Z,25.99
2023-03-05T10:29:38.783Z,26.54
2023-03-05T10:30:25.537Z,27.91
2023-03-05T10:31:15.863Z,29.11
2023-03-05T10:31:56.797Z,29.71
2023-03-05T10:33:07.435Z,29.99
2023-03-05T10:33:44.341Z,29.86
2023-03-05T10:34:17.084Z,31.40
2023-03-05T10:35:36.407Z,30.82
2023-03-05T10:36:46.121Z,29.70
2023-03-05T10:37:32.790Z,30.05
2023-03-05T10:38:19.722Z,30.14
2023-03-05T10:39:25.082Z,29.88
2023-03-05T10:40:23.066Z,31.12
2023-03-05T10:40:56.194Z,31.49
2023-03-05T10:42:09.026Z,31.77
2023-03-05T10:43:05.304Z,30.80
2023-03-05T10:44:25.321Z,33.07
2023-03-05T10:45:00.192Z,33.50
2023-03-05T10:45:44.771Z,32.66
2023-03-05T10:46:21.251Z,32.85
2023-03-05T10:46:58.371Z,33.03
2023-03-05T10:47:38.635Z,33.64
2023-03-05T10:48:22.471Z,32.71
2023-03-05T10:49:02.770Z,32.58
2023-03-05T10:49:49.261Z,32.31
2023-03-05T10:50:25.658Z,33.04
2023-03-05T10:51:16.008Z,32.75
2023-03-05T10:52:22.699Z,33.65
2023-03-05T10:53:17.162Z,32.87
2023-03-05T10:54:01.310Z,33.48
2023-03-05T10:54:36.228Z,33.45
2023-03-05T10:55:17.814Z,34.01
2023-03-05T10:55:51.760Z,33.32
2023-03-05T10:56:35.186Z,33.27
2023-03-05T10:57:13.034Z,33.40
2023-03-05T10:57:45.770Z,34.08
2023-03-05T10:58:22.074Z,34.28
2023-03-05T10:58:56.551Z,33.91
2023-03-05T10:59:33.893Z,33.96
2023-03-05T11:00:20.435Z,33.70
2023-03-05T11:01:12.749Z,33.73
2023-03-05T11:02:03.842Z,33.50
2023-03-05T11:03:12.890Z,33.66
2023-03-05T11:03:52.624Z,33.26
2023-03-05T11:04:33.236Z,34.06
2023-03-05T11:05:07.131Z,34.98
2023-03-05T11:05:39.362Z,35.89
2023-03-05T11:06:13.245Z,36.90
2023-03-05T11:06:50.411Z,37.57
2023-03-05T11:07:24.807Z,38.63
2023-03-05T11:07:56.819Z,37.72
2023-03-05T11:08:32.957Z,37.32
2023-03-05T11:09:24.746Z,37.21
2023-03-05T11:10:19.218Z,36.29
2023-03-05T11:11:11.598Z,37.41
2023-03-05T11:11:44.169Z,38.15
2023-03-05T11:12:26.432Z,38.93
2023-03-05T11:12:58.771Z,39.61
2023-03-05T11:13:31.321Z,39.09
2023-03-05T11:14:04.054Z,39.19
2023-03-05T11:14:41.796Z,39.95
2023-03-05T11:15:13.512Z,39.61
2023-03-05T11:16:00.799Z,39.51
2023-03-05T11:16:47.548Z,39.76
2023-03-05T11:17:34.893Z,39.80
2023-03-05T11:18:18.666Z,38.92
2023-03-05T11:19:13.342Z,38.70
2023-03-05T11:19:45.604Z,38.89
2023-03-05T11:20:31.870Z,38.24
2023-03-05T11:21:28.891Z,39.02
2023-03-05T11:22:17.478Z,39.22
2023-03-05T11:23:27.199Z,39.59
2023-03-05T11:24:16.550Z,40.42
2023-03-05T11:25:16.612Z,40.12
2023-03-05T11:26:03.634Z,40.47
2023-03-05T11:26:35.645Z,40.87
2023-03-05T11:28:24.077Z,40.97
2023-03-05T11:29:08.699Z,41.02
2023-03-05T11:29:48.699Z,40.58
2023-03-05T11:30:33.398Z,40.91
2023-03-05T11:31:18.831Z,40.70
2023-03-05T11:31:53.409Z,40.75
2023-03-05T11:32:28.139Z,41.04
2023-03-05T11:33:20.895Z,41.26
2023-03-05T11:33:58.457Z,41.12
2023-03-05T11:34:35.813Z,41.27
2023-03-05T11:35:33.211Z,40.97
2023-03-05T11:36:26.737Z,40.96
2023-03-05T11:36:58.835Z,39.88
2023-03-05T11:37:33.003Z,39.99
2023-03-05T11:38:07.666Z,40.05
2023-03-05T11:38:51.732Z,39.04
2023-03-05T11:39:26.590Z,39.10
2023-03-05T11:40:10.989Z,38.97
2023-03-05T11:40:44.774Z,38.45
2023-03-05T11:41:29.535Z,37.40
2023-03-05T11:42:24.820Z,37.34
2023-03-05T11:43:03.149Z,37.02
2023-03-05T11:43:37.816Z,36.44
2023-03-05T11:44:24.612Z,35.92
2023-03-05T11:44:57.873Z,35.51
2023-03-05T11:45:32.566Z,35.41
2023-03-05T11:46:05.718Z,35.42
2023-03-05T11:46:43.719Z,35.86
2023-03-05T11:47:42.919Z,35.49
2023-03-05T11:48:28.703Z,35.03
2023-03-05T11:49:03.829Z,34.56
2023-03-05T11:49:46.880Z,35.91
2023-03-05T11:50:29.522Z,36.00
2023-03-05T11:51:08.287Z,35.22
2023-03-05T11:52:15.759Z,35.35
2023-03-05T11:52:50.372Z,35.51
2023-03-05T11:53:29.266Z,35.36
2023-03-05T11:54:09.659Z,35.76
2023-03-05T11:55:02.767Z,35.54
2023-03-05T11:55:52.603Z,34.83
2023-03-05T11:56:28.178Z,35.26
2023-03-05T11:57:02.828Z,35.56
2023-03-05T11:58:22.872Z,35.69
2023-03-05T11:59:19.718Z,34.26
2023-03-05T11:59:55.803Z,34.84
2023-03-05T12:00:31.507Z,35.30
2023-03-05T12:01:07.753Z,34.21
2023-03-05T12:01:50.074Z,35.25
2023-03-05T12:02:28.050Z,35.56
2023-03-05T12:03:05.315Z,35.38
2023-03-05T12:03:39.130Z,35.58
2023-03-05T12:04:14.585Z,35.85
2023-03-05T12:04:49.677Z,35.77
2023-03-05T12:05:25.167Z,35.19
2023-03-05T12:06:10.490Z,36.01
2023-03-05T12:06:57.651Z,35.98
2023-03-05T12:07:41.482Z,35.90
2023-03-05T12:08:21.916Z,36.09
2023-03-05T12:09:01.953Z,35.50
2023-03-05T12:09:42.739Z,35.12
2023-03-05T12:10:24.985Z,35.19
2023-03-05T12:11:06.136Z,34.64
2023-03-05T12:11:38.577Z,34.17
2023-03-05T12:12:25.534Z,34.71
2023-03-05T12:13:03.192Z,34.36
2023-03-05T12:13:43.294Z,35.14
2023-03-05T12:14:39.557Z,34.72
2023-03-05T12:15:35.288Z,34.03
2023-03-05T12:16:35.045Z,34.36
2023-03-05T12:17:29.747Z,34.41
2023-03-05T12:18:13.907Z,34.56
2023-03-05T12:18:54.632Z,33.66
2023-03-05T12:19:42.747Z,33.86
2023-03-05T12:20:19.110Z,33.66
2023-03-05T12:21:06.618Z,34.27
2023-03-05T12:21:44.644Z,34.17
2023-03-05T12:22:28.573Z,34.37
2023-03-05T12:23:00.626Z,33.71
2023-03-05T12:23:47.277Z,33.77
2023-03-05T12:24:28.022Z,34.43
2023-03-05T12:25:18.774Z,33.90
2023-03-05T12:25:59.852Z,34.37
2023-03-05T12:26:53.463Z,34.09
2023-03-05T12:27:37.145Z,34.53
2023-03-05T12:28:39.633Z,34.91
2023-03-05T12:29:30.981Z,34.49
2023-03-05T12:30:05.255Z,34.03
2023-03-05T12:30:37.274Z,33.58
2023-03-05T12:31:10.638Z,33.51
2023-03-05T12:31:45.557Z,34.28
2023-03-05T12:32:25.711Z,33.77
2023-03-05T12:32:59.605Z,33.66
2023-03-05T12:33:45.120Z,34.59
2023-03-05T12:35:04.405Z,34.98
2023-03-05T12:35:39.629Z,35.24
2023-03-05T12:36:17.350Z,34.83
2023-03-05T12:36:49.165Z,36.02
2023-03-05T12:37:28.587Z,35.68
2023-03-05T12:38:13.461Z,36.34
2023-03-05T12:38:57.778Z,36.36
2023-03-05T12:39:51.504Z,35.40
2023-03-05T12:40:30.671Z,36.20
2023-03-05T12:41:27.980Z,35.75
2023-03-05T12:42:01.320Z,36.48
2023-03-05T12:42:35.904Z,36.46
2023-03-05T12:43:30.545Z,35.83
2023-03-05T12:44:08.708Z,35.59
2023-03-05T12:44:40.541Z,35.56
2023-03-05T12:45:13.118Z,35.43
2023-03-05T12:45:45.620Z,36.27
2023-03-05T12:46:29.827Z,34.32
2023-03-05T12:47:23.860Z,34.54
2023-03-05T12:47:55.846Z,34.66
2023-03-05T12:48:28.012Z,33.99
2023-03-05T12:48:59.790Z,34.04
2023-03-05T12:49:44.800Z,33.50
2023-03-05T12:50:28.798Z,33.53
2023-03-05T12:51:01.865Z,33.37
2023-03-05T12:51:37.960Z,33.80
2023-03-05T12:52:24.183Z,33.39
2023-03-05T12:53:08.992Z,31.81
2023-03-05T12:53:41.079Z,31.80
2023-03-05T12:54:41.280Z,32.05
2023-03-05T12:55:20.464Z,31.12
2023-03-05T12:56:01.606Z,30.93
2023-03-05T12:56:37.145Z,31.06
2023-03-05T12:57:41.389Z,31.43
2023-03-05T12:58:45.236Z,31.13
2023-03-05T12:59:22.318Z,30.35
2023-03-05T13:00:16.022Z,30.88
2023-03-05T13:00:51.402Z,31.24
2023-03-05T13:01:41.336Z,30.35
2023-03-05T13:02:36.560Z,29.55
2023-03-05T13:03:16.985Z,28.53
2023-03-05T13:04:05.340Z,28.53
2023-03-05T13:04:47.308Z,29.05
2023-03-05T13:05:29.316Z,29.37
2023-03-05T13:06:04.156Z,28.56
2023-03-05T13:06:37.034Z,28.63
2023-03-05T13:07:16.569Z,28.95
2023-03-05T13:07:50.192Z,28.93
2023-03-05T13:08:31.776Z,28.45
2023-03-05T13:09:23.552Z,27.96
2023-03-05T13:09:58.035Z,26.93
2023-03-05T13:10:30.720Z,26.59
2023-03-05T13:11:06.726Z,26.18
2023-03-05T13:11:39.702Z,25.84
2023-03-05T13:12:14.450Z,25.97
2023-03-05T13:12:59.670Z,25.08
2023-03-05T13:13:53.911Z,26.06
2023-03-05T13:14:44.065Z,26.79
2023-03-05T13:15:16.955Z,27.08
2023-03-05T13:15:52.858Z,26.49
2023-03-05T13:16:33.022Z,25.68
2023-03-05T13:17:33.070Z,25.44
2023-03-05T13:18:09.148Z,25.97
2023-03-05T13:18:45.922Z,26.78
2023-03-05T13:19:19.607Z,28.17
2023-03-05T13:19:52.863Z,28.33
2023-03-05T13:20:27.730Z,28.42
2023-03-05T13:21:13.509Z,27.02
2023-03-05T13:21:45.852Z,25.95
2023-03-05T13:22:19.889Z,26.17
2023-03-05T13:23:05.577Z,25.47
2023-03-05T13:23:38.441Z,25.50
2023-03-05T13:24:19.068Z,26.22
2023-03-05T13:25:15.819Z,26.86
2023-03-05T13:26:02.015Z,26.28
2023-03-05T13:26:42.182Z,26.85
2023-03-05T13:27:33.626Z,26.57
2023-03-05T13:28:13.090Z,28.06
2023-03-05T13:29:05.726Z,28.55
2023-03-05T13:29:52.294Z,26.67
2023-03-05T13:30:29.037Z,26.30
2023-03-05T13:31:12.865Z,27.24
2023-03-05T13:31:48.740Z,27.26
2023-03-05T13:32:33.496Z,27.17
2023-03-05T13:33:06.661Z,27.04
2023-03-05T13:33:38.856Z,26.72
2023-03-05T13:34:29.850Z,25.92
2023-03-05T13:35:14.706Z,25.91
2023-03-05T13:35:51.891Z,25.97
2023-03-05T13:36:27.088Z,26.08
2023-03-05T13:37:08.200Z,26.58
2023-03-05T13:37:41.089Z,25.68
2023-03-05T13:38:41.071Z,25.42
2023-03-05T13:39:23.353Z,26.71
2023-03-05T13:40:02.128Z,26.58
2023-03-05T13:40:35.266Z,26.85
2023-03-05T13:41:16.909Z,27.01
2023-03-05T13:42:02.671Z,26.93
2023-03-05T13:42:36.963Z,27.01
2023-03-05T13:43:12.646Z,27.08
2023-03-05T13:43:57.715Z,27.43
2023-03-05T13:44:32.812Z,27.93
2023-03-05T13:45:25.451Z,27.85
2023-03-05T13:45:58.846Z,27.87
2023-03-05T13:46:40.326Z,28.04
2023-03-05T13:47:21.598Z,28.00
2023-03-05T13:48:04.982Z,27.88
2023-03-05T13:48:37.614Z,28.03
2023-03-05T13:49:22.407Z,29.16
2023-03-05T13:50:24.910Z,29.52
2023-03-05T13:50:59.690Z,29.82
2023-03-05T13:51:50.854Z,30.07
2023-03-05T13:52:28.859Z,29.34
2023-03-05T13:53:24.183Z,31.12
2023-03-05T13:53:56.692Z,31.03
2023-03-05T13:54:30.012Z,31.00
2023-03-05T13:55:12.233Z,30.06
2023-03-05T13:55:44.636Z,30.80
2023-03-05T13:56:23.548Z,31.23
2023-03-05T13:57:06.174Z,32.04
2023-03-05T13:57:44.750Z,32.54
2023-03-05T13:58:49.190Z,32.10
2023-03-05T13:59:23.815Z,32.82
2023-03-05T13:59:56.394Z,33.22
2023-03-05T14:00:42.698Z,32.67
2023-03-05T14:01:37.102Z,33.03
2023-03-05T14:02:19.707Z,33.52
2023-03-05T14:02:53.595Z,34.80
2023-03-05T14:03:29.493Z,36.08
2023-03-05T14:04:23.673Z,34.44
2023-03-05T14:04:57.654Z,34.12
2023-03-05T14:05:32.048Z,34.83
2023-03-05T14:06:15.555Z,33.85
2023-03-05T14:07:05.433Z,34.51
2023-03-05T14:07:43.940Z,33.93
2023-03-05T14:08:25.895Z,36.67
2023-03-05T14:09:06.839Z,34.03
2023-03-05T14:09:39.264Z,33.31
2023-03-05T14:10:42.229Z,33.28
2023-03-05T14:11:20.410Z,33.85
2023-03-05T14:11:58.934Z,34.13
2023-03-05T14:12:38.785Z,34.36
2023-03-05T14:13:32.644Z,34.65
2023-03-05T14:14:17.875Z,35.56
2023-03-05T14:14:51.218Z,35.55
2023-03-05T14:15:38.143Z,35.46
2023-03-05T14:16:13.931Z,35.47
2023-03-05T14:16:47.168Z,36.27
2023-03-05T14:17:28.764Z,35.66
2023-03-05T14:18:21.204Z,35.95
2023-03-05T14:19:02.144Z,36.48
2023-03-05T14:19:39.749Z,37.05
2023-03-05T14:20:12.396Z,36.88
2023-03-05T14:21:10.553Z,37.58
2023-03-05T14:21:49.254Z,37.94
2023-03-05T14:22:34.408Z,38.01
2023-03-05T14:23:45.532Z,38.75
2023-03-05T14:24:28.836Z,39.19
2023-03-05T14:25:01.235Z,38.67
2023-03-05T14:25:40.771Z,38.65
2023-03-05T14:26:22.161Z,39.11
2023-03-05T14:27:13.768Z,38.99
2023-03-05T14:27:48.064Z,39.31
2023-03-05T14:28:23.059Z,39.56
2023-03-05T14:29:00.831Z,39.25
2023-03-05T14:29:34.260Z,39.04
2023-03-05T14:30:17.688Z,39.67
2023-03-05T14:30:54.810Z,39.19
2023-03-05T14:31:30.755Z,39.42
2023-03-05T14:32:27.424Z,39.51
2023-03-05T14:33:01.784Z,40.07
2023-03-05T14:33:34.582Z,40.02
2023-03-05T14:34:08.621Z,39.70
2023-03-05T14:34:51.522Z,40.12
2023-03-05T14:35:28.695Z,39.88
2023-03-05T14:36:03.754Z,40.11
2023-03-05T14:36:36.991Z,40.16
2023-03-05T14:37:30.407Z,40.73
2023-03-05T14:38:04.097Z,40.87
2023-03-05T14:38:44.626Z,40.40
2023-03-05T14:39:44.575Z,40.22
2023-03-05T14:40:24.497Z,41.04
2023-03-05T14:40:59.429Z,41.00
2023-03-05T14:41:42.584Z,40.64
2023-03-05T14:42:35.231Z,41.40
2023-03-05T14:43:12.888Z,41.88
2023-03-05T14:43:45.387Z,41.70
2023-03-05T14:44:20.444Z,41.61
2023-03-05T14:44:53.436Z,41.10
2023-03-05T14:45:33.530Z,41.37
2023-03-05T14:46:07.849Z,41.32
2023-03-05T14:46:41.237Z,41.40
2023-03-05T14:47:14.572Z,41.89
2023-03-05T14:47:48.319Z,41.95
2023-03-05T14:48:23.993Z,42.60
2023-03-05T14:48:56.640Z,42.78
2023-03-05T14:49:29.110Z,42.85
2023-03-05T14:50:01.651Z,43.23
2023-03-05T14:50:39.977Z,43.24
2023-03-05T14:51:12.541Z,43.93
2023-03-05T14:51:47.449Z,43.17
2023-03-05T14:52:24.553Z,45.18
2023-03-05T14:53:00.532Z,44.52
2023-03-05T14:53:46.928Z,44.32
2023-03-05T14:54:26.630Z,45.23
2023-03-05T14:54:58.631Z,45.79
2023-03-05T14:55:34.323Z,47.45
2023-03-05T14:56:28.600Z,47.09
2023-03-05T14:57:01.950Z,47.09
2023-03-05T14:57:35.929Z,44.93
2023-03-05T14:58:18.233Z,43.44
2023-03-05T14:58:50.992Z,43.23
2023-03-05T14:59:23.668Z,43.38
2023-03-05T14:59:58.654Z,42.63
2023-03-05T15:00:34.250Z,43.27
2023-03-05T15:01:08.146Z,43.13
2023-03-05T15:01:40.995Z,42.37
2023-03-05T15:02:19.181Z,42.04
2023-03-05T15:02:52.747Z,42.24
2023-03-05T15:03:25.766Z,42.80
2023-03-05T15:03:58.431Z,42.64
2023-03-05T15:04:32.913Z,42.53
2023-03-05T15:05:05.931Z,43.57
2023-03-05T15:05:39.759Z,43.26
2023-03-05T15:06:25.592Z,43.17
2023-03-05T15:06:59.471Z,43.04
2023-03-05T15:07:33.388Z,43.73
2023-03-05T15:08:08.542Z,43.36
2023-03-05T15:08:41.595Z,43.35
2023-03-05T15:09:18.758Z,43.90
2023-03-05T15:09:51.379Z,43.88
2023-03-05T15:10:25.886Z,44.03
2023-03-05T15:11:01.385Z,43.93
2023-03-05T15:11:37.580Z,44.32
2023-03-05T15:12:14.330Z,43.91
2023-03-05T15:12:50.930Z,43.93
2023-03-05T15:13:27.855Z,44.12
2023-03-05T15:14:01.178Z,44.39
2023-03-05T15:14:33.839Z,44.07
2023-03-05T15:15:07.843Z,44.30
2023-03-05T15:15:45.480Z,43.55
2023-03-05T15:16:21.517Z,44.23
2023-03-05T15:16:55.863Z,43.63
2023-03-05T15:17:38.139Z,44.29
2023-03-05T15:18:16.321Z,43.99
2023-03-05T15:18:50.747Z,43.94
2023-03-05T15:19:22.985Z,44.17
2023-03-05T15:19:55.964Z,44.87
2023-03-05T15:20:30.902Z,45.14
2023-03-05T15:21:03.152Z,45.59
2023-03-05T15:21:37.208Z,45.00
2023-03-05T15:22:15.303Z,45.05
2023-03-05T15:22:48.508Z,44.90
2023-03-05T15:23:21.715Z,45.23
2023-03-05T15:23:55.939Z,44.89
2023-03-05T15:24:28.252Z,45.07
2023-03-05T15:25:01.125Z,45.64
2023-03-05T15:25:34.868Z,45.04
2023-03-05T15:26:10.255Z,45.74
2023-03-05T15:26:45.942Z,45.51
2023-03-05T15:27:20.957Z,45.33
2023-03-05T15:27:53.934Z,45.05
2023-03-05T15:28:26.690Z,45.43
2023-03-05T15:28:59.407Z,45.50
2023-03-05T15:29:33.525Z,45.36
2023-03-05T15:30:08.335Z,45.67
2023-03-05T15:30:45.170Z,45.31
2023-03-05T15:31:18.997Z,45.65
2023-03-05T15:31:53.991Z,45.56
2023-03-05T15:32:31.317Z,45.03
2023-03-05T15:33:11.325Z,44.96
2023-03-05T15:33:46.187Z,45.43
2023-03-05T15:34:21.915Z,45.39
2023-03-05T15:34:54.886Z,45.19
2023-03-05T15:35:30.578Z,45.52
2023-03-05T15:36:03.372Z,45.35
2023-03-05T15:36:36.483Z,44.87
2023-03-05T15:37:10.476Z,44.88
2023-03-05T15:37:42.437Z,46.36
2023-03-05T15:38:15.356Z,47.85
2023-03-05T15:38:49.735Z,50.09
2023-03-05T15:39:27.029Z,51.50
2023-03-05T15:40:00.029Z,46.79
2023-03-05T15:40:33.070Z,50.29
2023-03-05T15:41:06.637Z,48.89
2023-03-05T15:41:39.588Z,47.65
2023-03-05T15:42:12.870Z,47.56
2023-03-05T15:42:46.326Z,49.78
2023-03-05T15:43:20.587Z,49.49
2023-03-05T15:43:54.180Z,51.77
2023-03-05T15:44:28.796Z,51.66
2023-03-05T15:45:01.221Z,54.44
2023-03-05T15:45:34.348Z,47.62
2023-03-05T15:46:08.142Z,46.41
2023-03-05T15:46:41.560Z,48.12
2023-03-05T15:47:14.489Z,47.43
2023-03-05T15:47:51.170Z,53.02
2023-03-05T15:48:28.873Z,46.72
2023-03-05T15:49:03.233Z,46.02
2023-03-05T15:49:36.125Z,45.52
2023-03-05T15:50:12.254Z,45.45
2023-03-05T15:50:46.009Z,45.41
2023-03-05T15:51:23.362Z,45.33
2023-03-05T15:51:59.223Z,45.36
2023-03-05T15:52:35.439Z,44.95
2023-03-05T15:53:09.777Z,45.84
2023-03-05T15:53:42.338Z,45.25
2023-03-05T15:54:15.036Z,45.84
2023-03-05T15:54:48.472Z,45.50
2023-03-05T15:55:21.649Z,45.04
2023-03-05T15:55:54.307Z,45.67
2023-03-05T15:56:27.228Z,45.32
2023-03-05T15:56:59.555Z,45.88
2023-03-05T15:57:40.992Z,45.74
2023-03-05T15:58:19.042Z,45.60
2023-03-05T15:58:54.154Z,45.27
2023-03-05T15:59:28.523Z,45.87
2023-03-05T16:00:07.640Z,45.56
2023-03-05T16:00:40.987Z,45.84
2023-03-05T16:01:14.276Z,45.65
2023-03-05T16:01:51.928Z,46.51
2023-03-05T16:02:26.705Z,45.94
2023-03-05T16:02:59.406Z,46.57
2023-03-05T16:03:33.611Z,46.36
2023-03-05T16:04:07.666Z,46.54
2023-03-05T16:04:39.826Z,46.65
2023-03-05T16:05:13.633Z,46.40
2023-03-05T16:05:46.550Z,46.32
2023-03-05T16:06:24.543Z,46.06
2023-03-05T16:07:03.720Z,46.21
2023-03-05T16:07:39.745Z,46.09
2023-03-05T16:08:13.422Z,46.18
2023-03-05T16:08:48.216Z,46.55
2023-03-05T16:09:24.980Z,46.66
2023-03-05T16:10:00.251Z,46.59
2023-03-05T16:10:39.262Z,46.70
2023-03-05T16:11:14.109Z,46.65
2023-03-05T16:11:49.804Z,46.54
2023-03-05T16:12:28.977Z,47.42
2023-03-05T16:13:12.696Z,46.87
2023-03-05T16:13:49.408Z,46.93
2023-03-05T16:14:28.959Z,46.71
2023-03-05T16:15:03.491Z,47.23
2023-03-05T16:15:36.607Z,47.19
2023-03-05T16:16:12.045Z,46.97
2023-03-05T16:16:45.571Z,47.17
2023-03-05T16:17:22.055Z,47.23
2023-03-05T16:18:00.830Z,47.42
2023-03-05T16:18:43.392Z,47.20
2023-03-05T16:19:19.328Z,47.38
2023-03-05T16:19:56.931Z,48.09
2023-03-05T16:20:29.264Z,47.82
2023-03-05T16:21:03.724Z,47.84
2023-03-05T16:21:37.674Z,47.71
2023-03-05T16:22:10.407Z,48.21
2023-03-05T16:22:45.121Z,48.37
2023-03-05T16:23:18.402Z,47.97
2023-03-05T16:23:54.187Z,48.33
2023-03-05T16:24:26.649Z,48.40
2023-03-05T16:25:02.020Z,48.29
2023-03-05T16:25:35.743Z,48.70
2023-03-05T16:26:11.173Z,48.44
2023-03-05T16:26:45.203Z,48.65
2023-03-05T16:27:17.891Z,48.46
2023-03-05T16:27:57.289Z,48.93
2023-03-05T16:28:31.411Z,48.91
2023-03-05T16:29:05.478Z,48.71
2023-03-05T16:29:40.063Z,48.69
2023-03-05T16:30:17.746Z,48.57
2023-03-05T16:30:58.483Z,49.00
2023-03-05T16:31:58.420Z,48.71
2023-03-05T16:32:31.246Z,49.06
2023-03-05T16:33:04.255Z,49.08
2023-03-05T16:33:39.794Z,49.42
2023-03-05T16:34:25.442Z,49.13
2023-03-05T16:35:02.405Z,49.43
2023-03-05T16:35:35.628Z,49.40
2023-03-05T16:36:29.436Z,49.12
2023-03-05T16:37:06.975Z,49.28
2023-03-05T16:37:41.837Z,49.43
2023-03-05T16:38:16.459Z,49.64
2023-03-05T16:38:51.345Z,49.80
2023-03-05T16:39:25.599Z,49.69
2023-03-05T16:40:10.083Z,53.59
2023-03-05T16:41:05.932Z,54.21
2023-03-05T16:41:41.526Z,58.54
2023-03-05T16:42:14.002Z,56.07
2023-03-05T16:42:47.904Z,60.68
2023-03-05T16:43:23.370Z,55.70
2023-03-05T16:43:58.629Z,55.98
2023-03-05T16:44:31.552Z,56.69
2023-03-05T16:45:05.644Z,57.75
2023-03-05T16:45:39.941Z,52.97
2023-03-05T16:46:14.338Z,53.22
2023-03-05T16:46:53.397Z,52.20
2023-03-05T16:47:26.336Z,51.15
2023-03-05T16:47:59.235Z,50.64
2023-03-05T16:48:31.224Z,50.54
2023-03-05T16:49:05.021Z,50.54
2023-03-05T16:49:37.952Z,50.41
2023-03-05T16:50:12.790Z,50.79
2023-03-05T16:50:45.487Z,50.95
2023-03-05T16:51:19.961Z,50.49
2023-03-05T16:51:54.045Z,50.71
2023-03-05T16:52:28.146Z,50.89
2023-03-05T16:53:00.331Z,50.94
2023-03-05T16:53:33.849Z,50.71
2023-03-05T16:54:07.412Z,50.91
2023-03-05T16:54:41.642Z,51.24
2023-03-05T16:55:16.932Z,51.07
2023-03-05T16:55:52.221Z,51.35
2023-03-05T16:56:24.994Z,51.18
2023-03-05T16:57:35.678Z,51.36
2023-03-05T16:58:08.555Z,51.10
2023-03-05T16:58:41.317Z,51.31
2023-03-05T16:59:14.195Z,51.66
2023-03-05T16:59:47.041Z,51.49
2023-03-05T17:00:23.971Z,51.51
2023-03-05T17:00:59.303Z,51.72
2023-03-05T17:01:32.003Z,51.63
2023-03-05T17:02:04.979Z,51.19
2023-03-05T17:02:37.988Z,51.89
2023-03-05T17:03:11.303Z,51.39
2023-03-05T17:03:45.546Z,51.27
2023-03-05T17:04:19.581Z,51.70
2023-03-05T17:04:53.557Z,52.06
2023-03-05T17:05:30.614Z,52.11
2023-03-05T17:06:09.273Z,51.78
2023-03-05T17:06:41.906Z,52.46
2023-03-05T17:07:19.061Z,52.28
2023-03-05T17:07:52.233Z,52.28
2023-03-05T17:08:25.980Z,52.26
2023-03-05T17:08:59.823Z,52.32
2023-03-05T17:09:33.345Z,51.39
2023-03-05T17:10:07.702Z,52.11
2023-03-05T17:10:42.505Z,52.03
2023-03-05T17:11:28.921Z,51.83
2023-03-05T17:12:01.920Z,51.77
2023-03-05T17:12:34.516Z,52.28
2023-03-05T17:13:08.554Z,52.00
2023-03-05T17:13:43.700Z,52.85
2023-03-05T17:14:16.704Z,52.96
2023-03-05T17:14:49.453Z,52.39
2023-03-05T17:15:22.228Z,52.63
2023-03-05T17:15:57.109Z,52.41
2023-03-05T17:16:30.934Z,53.06
2023-03-05T17:17:04.335Z,52.97
2023-03-05T17:17:39.131Z,53.14
2023-03-05T17:18:12.479Z,53.06
2023-03-05T17:18:45.597Z,53.03
2023-03-05T17:19:18.259Z,53.19
2023-03-05T17:19:52.084Z,53.19
2023-03-05T17:20:24.881Z,53.23
2023-03-05T17:20:58.531Z,53.13
2023-03-05T17:21:32.392Z,53.31
2023-03-05T17:22:05.535Z,53.35
2023-03-05T17:22:39.642Z,52.84
2023-03-05T17:23:12.245Z,53.16
2023-03-05T17:23:46.679Z,53.14
2023-03-05T17:24:22.230Z,53.01
2023-03-05T17:24:55.438Z,53.19
2023-03-05T17:25:28.341Z,53.09
2023-03-05T17:26:05.466Z,53.07
2023-03-05T17:26:48.658Z,53.24
2023-03-05T17:27:23.866Z,53.37
2023-03-05T17:27:56.792Z,53.44
2023-03-05T17:28:29.597Z,53.37
2023-03-05T17:29:07.404Z,53.04
2023-03-05T17:29:40.479Z,52.89
2023-03-05T17:30:14.308Z,52.44
2023-03-05T17:30:50.617Z,52.97
2023-03-05T17:31:25.918Z,52.99
2023-03-05T17:31:58.447Z,52.48
2023-03-05T17:32:31.249Z,53.33
2023-03-05T17:33:08.093Z,52.90
2023-03-05T17:33:45.677Z,52.67
2023-03-05T17:34:23.450Z,53.20
2023-03-05T17:35:00.657Z,53.16
2023-03-05T17:35:36.023Z,53.32
2023-03-05T17:36:23.134Z,53.14
2023-03-05T17:36:55.980Z,53.46
2023-03-05T17:37:28.160Z,53.33
2023-03-05T17:38:08.971Z,52.67
2023-03-05T17:38:45.225Z,52.80
2023-03-05T17:39:21.593Z,53.38
2023-03-05T17:39:55.023Z,53.27
2023-03-05T17:40:27.978Z,53.04
2023-03-05T17:41:04.242Z,53.60
2023-03-05T17:41:37.128Z,53.17
2023-03-05T17:42:17.338Z,53.44
2023-03-05T17:42:49.863Z,52.85
2023-03-05T17:43:25.655Z,53.09
2023-03-05T17:43:59.928Z,52.83
2023-03-05T17:44:33.477Z,52.62
2023-03-05T17:45:07.825Z,52.61
2023-03-05T17:45:40.833Z,52.73
2023-03-05T17:46:14.599Z,53.14
2023-03-05T17:46:49.147Z,52.86
2023-03-05T17:47:23.217Z,52.92
2023-03-05T17:47:58.811Z,53.62
2023-03-05T17:48:33.919Z,53.28
2023-03-05T17:49:06.520Z,53.27
2023-03-05T17:49:39.324Z,52.86
2023-03-05T17:50:14.877Z,53.30
2023-03-05T17:50:49.039Z,52.71
2023-03-05T17:51:22.658Z,53.40
2023-03-05T17:51:55.735Z,52.54
2023-03-05T17:52:28.539Z,53.21
2023-03-05T17:53:00.946Z,52.39
2023-03-05T17:53:33.984Z,52.06
2023-03-05T17:54:07.283Z,52.17
2023-03-05T17:54:40.151Z,52.55
2023-03-05T17:55:15.583Z,51.84
2023-03-05T17:55:48.881Z,55.55
2023-03-05T17:56:23.395Z,59.32
2023-03-05T17:56:57.252Z,57.75
2023-03-05T17:57:30.254Z,58.48
2023-03-05T17:58:03.355Z,58.80
2023-03-05T17:58:40.172Z,57.50
2023-03-05T17:59:13.272Z,57.74
2023-03-05T17:59:46.222Z,58.21
2023-03-05T18:00:23.840Z,57.88
2023-03-05T18:00:56.873Z,55.53